createdAt,value
2023-03-25T00:00:25.375Z,96.20
2023-03-25T00:02:52.836Z,96.50
2023-03-25T00:05:21.791Z,95.77
2023-03-25T00:07:51.971Z,91.24
2023-03-25T00:28:04.555Z,97.03
2023-03-25T00:30:31.312Z,95.35
2023-03-25T00:33:01.954Z,94.86
2023-03-25T00:35:29.300Z,95.75
2023-03-25T00:38:02.956Z,94.00
2023-03-25T00:40:34.972Z,94.51
2023-03-25T00:43:02.855Z,92.83
2023-03-25T00:45:29.681Z,91.53
2023-03-25T00:47:56.600Z,92.74
2023-03-25T00:50:23.370Z,90.21
2023-03-25T00:52:50.675Z,90.93
2023-03-25T00:55:17.668Z,91.27
2023-03-25T00:57:44.343Z,89.53
2023-03-25T01:00:14.439Z,88.72
2023-03-25T01:05:18.305Z,87.63
2023-03-25T01:07:45.638Z,87.65
2023-03-25T01:10:12.656Z,86.37
2023-03-25T01:12:39.288Z,85.79
2023-03-25T01:15:06.637Z,87.21
2023-03-25T01:17:33.359Z,88.38
2023-03-25T01:20:00.002Z,85.38
2023-03-25T01:22:26.667Z,84.26
2023-03-25T01:24:53.294Z,82.98
2023-03-25T01:27:19.915Z,81.93
2023-03-25T01:29:46.525Z,81.83
2023-03-25T01:32:13.220Z,81.07
2023-03-25T01:34:40.176Z,80.91
2023-03-25T01:39:46.028Z,82.27
2023-03-25T01:42:12.776Z,82.54
2023-03-25T01:44:39.398Z,82.23
2023-03-25T01:49:44.723Z,82.87
2023-03-25T01:52:16.994Z,82.18
2023-03-25T01:54:45.719Z,82.73
2023-03-25T01:57:17.948Z,82.90
2023-03-25T01:59:44.842Z,82.41
2023-03-25T02:02:15.893Z,83.24
2023-03-25T02:04:59.320Z,82.48
2023-03-25T02:07:31.172Z,83.70
2023-03-25T02:10:04.946Z,82.63
2023-03-25T02:12:31.679Z,82.62
2023-03-25T02:15:02.562Z,82.43
2023-03-25T02:17:53.004Z,82.29
2023-03-25T02:20:58.066Z,81.51
2023-03-25T02:23:28.718Z,82.15
2023-03-25T02:26:33.440Z,80.37
2023-03-25T02:29:17.484Z,81.82
2023-03-25T02:31:58.931Z,81.94
2023-03-25T02:34:31.716Z,82.25
2023-03-25T02:37:23.026Z,81.79
2023-03-25T02:40:01.108Z,81.28
2023-03-25T02:42:37.320Z,82.53
2023-03-25T02:45:36.200Z,83.01
2023-03-25T02:48:08.561Z,83.74
2023-03-25T02:50:43.930Z,85.51
2023-03-25T02:53:15.559Z,86.46
2023-03-25T02:55:44.883Z,90.05
2023-03-25T02:58:16.892Z,88.89
2023-03-25T03:00:44.938Z,92.07
2023-03-25T03:03:12.040Z,93.34
2023-03-25T03:08:50.803Z,96.34
2023-03-25T03:11:23.201Z,99.12
2023-03-25T03:14:07.804Z,99.04
2023-03-25T03:17:09.854Z,98.31
2023-03-25T03:19:39.936Z,99.22
2023-03-25T03:22:34.521Z,98.88
2023-03-25T03:25:16.247Z,98.78
2023-03-25T03:27:51.932Z,97.83
2023-03-25T03:30:30.111Z,97.54
2023-03-25T03:33:10.076Z,97.91
2023-03-25T03:35:43.369Z,98.86
2023-03-25T03:38:13.827Z,99.05
2023-03-25T03:40:44.840Z,99.09
2023-03-25T03:43:18.718Z,99.00
2023-03-25T03:45:51.900Z,93.89
2023-03-25T03:48:27.132Z,95.70
2023-03-25T04:07:19.764Z,90.72
2023-03-25T04:10:08.660Z,88.98
2023-03-25T04:12:45.895Z,90.08
2023-03-25T04:15:19.060Z,90.81
2023-03-25T04:17:51.809Z,89.62
2023-03-25T04:20:29.993Z,88.52
2023-03-25T04:23:10.012Z,89.38
2023-03-25T04:25:43.807Z,88.39
2023-03-25T04:28:18.319Z,88.30
2023-03-25T04:30:55.851Z,89.57
2023-03-25T04:33:32.346Z,89.18
2023-03-25T04:36:06.942Z,88.50
2023-03-25T04:38:40.864Z,88.58
2023-03-25T04:41:14.140Z,87.65
2023-03-25T04:43:46.951Z,88.36
2023-03-25T04:46:20.086Z,88.00
2023-03-25T04:48:53.961Z,88.58
2023-03-25T04:51:27.229Z,87.73
2023-03-25T04:53:59.949Z,89.20
2023-03-25T04:56:32.661Z,88.66
2023-03-25T04:59:05.424Z,87.37
2023-03-25T05:04:20.710Z,91.17
2023-03-25T05:06:53.710Z,88.93
2023-03-25T05:09:26.507Z,89.12
2023-03-25T05:11:59.300Z,89.45
2023-03-25T05:14:32.077Z,89.40
2023-03-25T05:17:04.820Z,89.65
2023-03-25T05:19:37.595Z,88.53
2023-03-25T05:22:11.105Z,88.57
2023-03-25T05:24:45.403Z,89.13
2023-03-25T05:27:20.375Z,90.74
2023-03-25T05:29:54.272Z,88.88
2023-03-25T05:32:33.633Z,89.70
2023-03-25T05:35:07.036Z,88.59
2023-03-25T05:37:39.774Z,89.07
2023-03-25T05:40:14.680Z,88.59
2023-03-25T05:42:49.246Z,88.46
2023-03-25T05:45:22.992Z,87.12
2023-03-25T05:47:55.811Z,88.33
2023-03-25T05:50:29.102Z,87.83
2023-03-25T05:55:33.066Z,90.03
2023-03-25T05:58:05.494Z,87.13
2023-03-25T06:00:32.622Z,87.21
2023-03-25T06:02:59.599Z,86.19
2023-03-25T06:05:26.417Z,85.83
2023-03-25T06:10:34.602Z,86.42
2023-03-25T06:13:01.221Z,85.72
2023-03-25T06:15:33.873Z,86.68
2023-03-25T06:18:00.836Z,87.90
2023-03-25T06:20:27.711Z,87.49
2023-03-25T06:22:54.347Z,87.85
2023-03-25T06:25:21.415Z,88.15
2023-03-25T06:27:50.154Z,88.94
2023-03-25T06:30:21.934Z,89.26
2023-03-25T06:32:51.069Z,88.57
2023-03-25T06:35:20.515Z,88.62
2023-03-25T06:37:49.048Z,88.16
2023-03-25T06:40:16.269Z,88.51
2023-03-25T06:42:43.010Z,87.22
2023-03-25T06:45:10.565Z,87.95
2023-03-25T06:47:37.340Z,87.45
2023-03-25T06:50:04.638Z,86.01
2023-03-25T06:52:31.291Z,86.43
2023-03-25T06:54:57.949Z,85.83
2023-03-25T06:57:24.654Z,83.27
2023-03-25T06:59:51.464Z,81.11
2023-03-25T07:02:18.190Z,82.06
2023-03-25T07:04:44.894Z,83.04
2023-03-25T07:07:11.620Z,82.67
2023-03-25T07:09:38.319Z,81.65
2023-03-25T07:12:08.387Z,81.29
2023-03-25T07:14:35.672Z,78.86
2023-03-25T07:17:02.323Z,77.76
2023-03-25T07:19:28.952Z,77.85
2023-03-25T07:21:55.807Z,78.04
2023-03-25T07:24:22.528Z,77.31
2023-03-25T07:26:49.133Z,75.02
2023-03-25T07:29:15.919Z,76.01
2023-03-25T07:31:42.630Z,77.10
2023-03-25T07:34:09.404Z,76.80
2023-03-25T07:36:36.225Z,76.66
2023-03-25T07:39:03.273Z,77.65
2023-03-25T07:41:29.899Z,76.99
2023-03-25T07:43:56.553Z,77.13
2023-03-25T07:46:23.383Z,78.58
2023-03-25T07:48:50.436Z,78.97
2023-03-25T07:51:17.164Z,77.85
2023-03-25T07:53:44.883Z,76.33
2023-03-25T07:56:12.445Z,76.82
2023-03-25T07:58:39.480Z,75.69
2023-03-25T08:01:06.563Z,75.19
2023-03-25T08:03:33.783Z,75.05
2023-03-25T08:06:02.333Z,71.63
2023-03-25T08:08:32.528Z,72.24
2023-03-25T08:10:59.459Z,71.26
2023-03-25T08:13:26.305Z,71.91
2023-03-25T08:15:53.864Z,73.53
2023-03-25T08:18:20.919Z,73.20
2023-03-25T08:23:22.645Z,72.32
2023-03-25T08:25:51.366Z,73.23
2023-03-25T08:28:23.466Z,73.26
2023-03-25T08:30:56.949Z,73.84
2023-03-25T08:33:34.656Z,75.16
2023-03-25T08:36:02.045Z,72.76
2023-03-25T08:38:34.637Z,73.26
2023-03-25T08:41:01.921Z,72.49
2023-03-25T08:43:28.556Z,72.87
2023-03-25T08:45:55.342Z,73.54
2023-03-25T08:48:23.021Z,73.13
2023-03-25T08:50:49.674Z,74.58
2023-03-25T08:53:16.315Z,72.97
2023-03-25T08:55:42.929Z,72.93
2023-03-25T08:58:09.698Z,74.88
2023-03-25T09:00:38.008Z,75.94
2023-03-25T09:03:05.624Z,76.89
2023-03-25T09:05:32.253Z,77.34
2023-03-25T09:07:58.995Z,75.03
2023-03-25T09:10:25.706Z,74.77
2023-03-25T09:12:52.993Z,75.09
2023-03-25T09:15:19.865Z,78.33
2023-03-25T09:17:46.975Z,79.88
2023-03-25T09:20:13.808Z,83.32
2023-03-25T09:22:41.274Z,83.95
2023-03-25T09:25:08.921Z,85.57
2023-03-25T09:27:35.688Z,85.48
2023-03-25T09:30:03.659Z,83.09
2023-03-25T09:32:30.861Z,82.71
2023-03-25T09:34:57.519Z,82.85
2023-03-25T09:37:24.404Z,83.05
2023-03-25T09:39:51.120Z,81.94
2023-03-25T09:42:36.962Z,81.03
2023-03-25T09:45:31.507Z,81.69
2023-03-25T09:48:04.557Z,82.69
2023-03-25T09:50:35.195Z,80.22
2023-03-25T09:53:16.834Z,79.75
2023-03-25T09:55:46.909Z,79.02
2023-03-25T09:58:28.450Z,76.70
2023-03-25T10:01:19.782Z,76.53
2023-03-25T10:04:21.649Z,77.34
2023-03-25T10:07:12.709Z,77.31
2023-03-25T10:12:55.616Z,82.67
2023-03-25T10:18:37.037Z,78.21
2023-03-25T10:26:40.653Z,71.80
2023-03-25T10:29:13.297Z,72.94
2023-03-25T10:31:50.584Z,71.21
2023-03-25T10:34:19.806Z,70.46
2023-03-25T10:36:55.230Z,71.11
2023-03-25T10:39:23.713Z,72.70
2023-03-25T10:41:59.508Z,69.27
2023-03-25T10:44:27.614Z,68.07
2023-03-25T10:46:59.847Z,67.88
2023-03-25T10:49:30.894Z,69.37
2023-03-25T10:51:59.648Z,68.73
2023-03-25T10:54:35.028Z,66.91
2023-03-25T10:57:08.828Z,67.94
2023-03-25T10:59:49.975Z,67.95
2023-03-25T11:02:22.898Z,66.62
2023-03-25T11:04:55.119Z,65.40
2023-03-25T11:07:33.465Z,67.39
2023-03-25T11:10:28.565Z,66.59
2023-03-25T11:12:58.690Z,65.33
2023-03-25T11:15:29.406Z,66.00
2023-03-25T11:18:19.853Z,66.05
2023-03-25T11:20:53.462Z,62.96
2023-03-25T11:23:33.967Z,61.01
2023-03-25T11:26:08.509Z,60.31
2023-03-25T11:28:40.320Z,60.02
2023-03-25T11:31:16.335Z,62.35
2023-03-25T11:33:45.771Z,61.64
2023-03-25T11:36:20.624Z,59.98
2023-03-25T11:38:53.862Z,59.05
2023-03-25T11:41:20.684Z,57.47
2023-03-25T11:43:49.998Z,54.27
2023-03-25T11:46:21.253Z,52.95
2023-03-25T11:48:50.347Z,54.25
2023-03-25T11:51:28.431Z,53.28
2023-03-25T11:53:59.381Z,51.97
2023-03-25T11:56:38.598Z,53.78
2023-03-25T11:59:09.740Z,55.45
2023-03-25T12:01:46.377Z,54.86
2023-03-25T12:04:12.979Z,56.72
2023-03-25T12:07:08.781Z,56.13
2023-03-25T12:09:36.341Z,56.86
2023-03-25T12:12:22.043Z,55.35
2023-03-25T12:14:55.243Z,55.96
2023-03-25T12:17:40.839Z,55.94
2023-03-25T12:20:40.614Z,56.75
2023-03-25T12:23:36.915Z,55.30
2023-03-25T12:26:17.828Z,54.75
2023-03-25T12:29:13.314Z,54.17
2023-03-25T12:31:58.790Z,53.49
2023-03-25T12:34:40.466Z,52.18
2023-03-25T12:37:19.113Z,51.88
2023-03-25T12:39:54.232Z,52.56
2023-03-25T12:42:46.072Z,52.93
2023-03-25T12:45:43.528Z,53.30
2023-03-25T12:48:28.837Z,55.06
2023-03-25T12:51:07.441Z,54.04
2023-03-25T12:53:51.942Z,56.48
2023-03-25T12:56:24.207Z,61.34
2023-03-25T12:59:13.939Z,66.31
2023-03-25T13:01:50.999Z,67.26
2023-03-25T13:04:40.855Z,64.15
2023-03-25T13:07:17.403Z,60.94
2023-03-25T13:10:14.060Z,61.14
2023-03-25T13:12:58.710Z,60.40
2023-03-25T13:15:27.990Z,57.02
2023-03-25T13:18:04.299Z,59.96
2023-03-25T13:20:37.971Z,56.34
2023-03-25T13:23:08.063Z,58.02
2023-03-25T13:25:47.323Z,56.59
2023-03-25T13:28:20.426Z,57.44
2023-03-25T13:30:49.732Z,57.09
2023-03-25T13:33:20.277Z,58.24
2023-03-25T13:35:52.472Z,56.46
2023-03-25T13:38:43.247Z,56.79
2023-03-25T13:41:19.546Z,55.21
2023-03-25T13:44:07.391Z,56.76
2023-03-25T13:46:41.075Z,55.85
2023-03-25T13:49:30.517Z,55.44
2023-03-25T13:51:58.873Z,55.14
2023-03-25T13:54:48.463Z,54.29
2023-03-25T13:57:32.925Z,55.09
2023-03-25T14:00:14.903Z,53.99
2023-03-25T14:02:56.793Z,53.53
2023-03-25T14:05:35.256Z,52.48
2023-03-25T14:08:07.566Z,51.24
2023-03-25T14:11:12.679Z,52.67
2023-03-25T14:13:59.308Z,53.77
2023-03-25T14:16:33.678Z,53.18
2023-03-25T14:19:04.285Z,60.26
2023-03-25T14:21:37.103Z,61.92
2023-03-25T14:24:28.581Z,67.29
2023-03-25T14:27:01.325Z,72.84
2023-03-25T14:29:38.855Z,75.63
2023-03-25T14:32:17.780Z,74.79
2023-03-25T14:34:47.310Z,74.85
2023-03-25T14:37:29.014Z,74.90
2023-03-25T14:40:04.393Z,67.06
2023-03-25T14:42:42.716Z,67.42
2023-03-25T14:45:52.546Z,68.06
2023-03-25T14:48:30.832Z,63.18
2023-03-25T14:51:23.155Z,63.95
2023-03-25T14:54:02.374Z,61.35
2023-03-25T14:56:46.839Z,61.24
2023-03-25T14:59:18.743Z,60.95
2023-03-25T15:01:47.500Z,63.06
2023-03-25T15:04:18.270Z,60.95
2023-03-25T15:06:46.919Z,59.38
2023-03-25T15:09:17.623Z,58.25
2023-03-25T15:11:53.556Z,57.72
2023-03-25T15:17:01.231Z,55.80
2023-03-25T15:19:28.221Z,54.82
2023-03-25T15:24:36.785Z,55.68
2023-03-25T15:27:18.327Z,54.82
2023-03-25T15:30:22.000Z,56.35
2023-03-25T15:32:55.033Z,57.75
2023-03-25T15:35:47.789Z,56.07
2023-03-25T15:38:36.611Z,55.17
2023-03-25T15:41:35.934Z,55.19
2023-03-25T15:44:18.498Z,54.30
2023-03-25T15:47:13.599Z,53.80
2023-03-25T15:50:03.260Z,54.81
2023-03-25T15:52:55.796Z,55.38
2023-03-25T15:55:48.439Z,54.50
2023-03-25T15:58:25.815Z,54.05
2023-03-25T16:00:58.117Z,54.13
2023-03-25T16:03:29.343Z,55.63
2023-03-25T16:06:04.161Z,55.23
2023-03-25T16:08:36.517Z,54.54
2023-03-25T16:11:21.282Z,54.14
2023-03-25T16:14:00.849Z,53.22
2023-03-25T16:16:29.171Z,53.35
2023-03-25T16:18:56.284Z,54.17
2023-03-25T16:21:22.962Z,52.94
2023-03-25T16:23:53.555Z,53.16
2023-03-25T16:26:43.531Z,52.68
2023-03-25T16:29:21.011Z,50.89
2023-03-25T16:32:02.304Z,50.03
2023-03-25T16:34:35.591Z,49.70
2023-03-25T16:37:02.879Z,50.92
2023-03-25T16:39:33.370Z,51.56
2023-03-25T16:42:11.006Z,51.59
2023-03-25T16:44:38.163Z,51.86
2023-03-25T16:47:05.823Z,51.09
2023-03-25T16:49:38.652Z,50.81
2023-03-25T16:52:14.532Z,50.83
2023-03-25T16:55:15.473Z,50.42
2023-03-25T16:57:42.184Z,50.68
2023-03-25T17:00:19.691Z,50.97
2023-03-25T17:02:48.690Z,52.10
2023-03-25T17:05:27.049Z,51.75
2023-03-25T17:08:05.014Z,52.81
2023-03-25T17:10:46.948Z,51.80
2023-03-25T17:13:19.967Z,51.90
2023-03-25T17:15:49.356Z,52.40
2023-03-25T17:18:17.974Z,52.55
2023-03-25T17:20:47.141Z,51.96
2023-03-25T17:23:16.597Z,52.51
2023-03-25T17:25:53.864Z,53.12
2023-03-25T17:28:38.744Z,54.93
2023-03-25T17:31:38.223Z,53.46
2023-03-25T17:34:19.002Z,55.38
2023-03-25T17:36:48.524Z,54.66
2023-03-25T17:39:29.959Z,55.03
2023-03-25T17:42:01.719Z,54.38
2023-03-25T17:44:39.981Z,54.17
2023-03-25T17:47:08.263Z,54.43
2023-03-25T17:49:35.191Z,55.27
2023-03-25T17:52:03.078Z,54.70
2023-03-25T17:54:29.712Z,56.41
2023-03-25T17:56:56.568Z,57.62
2023-03-25T17:59:27.635Z,56.43
2023-03-25T18:01:54.372Z,55.70
2023-03-25T18:04:21.992Z,56.60
2023-03-25T18:06:49.669Z,56.61
2023-03-25T18:09:24.375Z,56.77
2023-03-25T18:11:53.914Z,56.94
2023-03-25T18:14:21.819Z,56.76
2023-03-25T18:19:31.350Z,57.02
2023-03-25T18:22:04.122Z,56.71
2023-03-25T18:24:36.922Z,56.71
2023-03-25T18:27:05.124Z,56.67
2023-03-25T18:29:32.084Z,57.01
2023-03-25T18:31:58.952Z,56.66
2023-03-25T18:34:26.295Z,57.02
2023-03-25T18:39:28.188Z,57.75
2023-03-25T18:41:54.864Z,58.53
2023-03-25T18:44:21.564Z,59.46
2023-03-25T18:46:48.305Z,59.71
2023-03-25T18:49:19.752Z,59.81
2023-03-25T18:51:50.027Z,60.39
2023-03-25T18:54:17.273Z,60.84
2023-03-25T18:56:44.343Z,60.72
2023-03-25T18:59:15.476Z,61.23
2023-03-25T19:01:42.711Z,61.32
2023-03-25T19:04:09.512Z,61.73
2023-03-25T19:06:39.232Z,62.19
2023-03-25T19:09:09.095Z,62.51
2023-03-25T19:11:36.054Z,62.91
2023-03-25T19:14:02.794Z,63.45
2023-03-25T19:16:29.520Z,63.62
2023-03-25T19:18:56.343Z,64.27
2023-03-25T19:21:23.069Z,64.66
2023-03-25T19:23:49.933Z,65.18
2023-03-25T19:26:16.587Z,64.87
2023-03-25T19:28:43.349Z,64.74
2023-03-25T19:31:12.392Z,65.22
2023-03-25T19:33:39.306Z,65.42
2023-03-25T19:36:06.306Z,66.13
2023-03-25T19:38:33.218Z,65.43
2023-03-25T19:41:08.533Z,65.92
2023-03-25T19:43:35.635Z,69.28
2023-03-25T19:46:03.078Z,71.56
2023-03-25T19:48:30.126Z,70.50
2023-03-25T19:50:57.497Z,71.80
2023-03-25T19:53:25.962Z,73.16
2023-03-25T19:55:53.212Z,72.20
2023-03-25T19:58:23.119Z,71.77
2023-03-25T20:00:50.222Z,73.07
2023-03-25T20:03:17.024Z,73.34
2023-03-25T20:05:43.804Z,73.22
2023-03-25T20:08:11.934Z,73.96
2023-03-25T20:10:39.588Z,72.75
2023-03-25T20:13:06.287Z,74.26
2023-03-25T20:15:33.259Z,72.41
2023-03-25T20:18:00.407Z,73.31
2023-03-25T20:20:27.584Z,71.42
2023-03-25T20:25:27.109Z,72.05
2023-03-25T20:27:53.805Z,72.42
2023-03-25T20:30:20.605Z,72.83
2023-03-25T20:32:48.818Z,72.56
2023-03-25T20:35:17.934Z,72.65
2023-03-25T20:37:46.419Z,72.38
2023-03-25T20:40:16.300Z,71.73
2023-03-25T20:42:44.774Z,73.21
2023-03-25T20:45:14.061Z,72.02
2023-03-25T20:47:41.836Z,70.78
2023-03-25T20:50:10.770Z,71.43
2023-03-25T20:52:38.291Z,71.50
2023-03-25T20:55:05.966Z,71.50
2023-03-25T20:57:33.196Z,70.29
2023-03-25T20:59:59.799Z,70.26
2023-03-25T21:02:27.447Z,71.25
2023-03-25T21:04:57.061Z,71.50
2023-03-25T21:07:30.642Z,71.77
2023-03-25T21:09:58.548Z,71.65
2023-03-25T21:12:36.424Z,72.16
2023-03-25T21:15:09.352Z,71.56
2023-03-25T21:17:36.042Z,71.89
2023-03-25T21:20:06.338Z,71.82
2023-03-25T21:22:33.462Z,70.52
2023-03-25T21:25:00.161Z,71.59
2023-03-25T21:27:38.164Z,71.36
2023-03-25T21:30:08.076Z,71.83
2023-03-25T21:32:35.017Z,71.44
2023-03-25T21:35:01.729Z,72.34
2023-03-25T21:40:01.430Z,70.10
2023-03-25T21:42:28.088Z,70.67
2023-03-25T21:44:54.711Z,71.62
2023-03-25T21:47:22.623Z,70.96
2023-03-25T21:49:50.519Z,70.56
2023-03-25T21:52:18.034Z,72.09
2023-03-25T21:54:44.685Z,73.72
2023-03-25T21:57:11.623Z,75.11
2023-03-25T21:59:38.334Z,76.25
2023-03-25T22:02:05.195Z,77.86
2023-03-25T22:04:33.822Z,76.53
2023-03-25T22:07:00.556Z,76.41
2023-03-25T22:09:27.672Z,77.18
2023-03-25T22:11:54.306Z,76.77
2023-03-25T22:14:21.019Z,76.99
2023-03-25T22:16:47.694Z,76.95
2023-03-25T22:19:14.355Z,78.39
2023-03-25T22:21:41.359Z,78.58
2023-03-25T22:24:09.251Z,77.21
2023-03-25T22:26:39.436Z,76.19
2023-03-25T22:29:08.193Z,76.67
2023-03-25T22:31:39.903Z,76.53
2023-03-25T22:34:12.987Z,77.63
2023-03-25T22:36:42.759Z,77.25
2023-03-25T22:39:10.641Z,77.56
2023-03-25T22:41:37.886Z,78.21
2023-03-25T22:44:04.683Z,80.29
2023-03-25T22:46:32.365Z,83.96
2023-03-25T22:48:59.227Z,84.41
2023-03-25T22:51:27.269Z,86.79
2023-03-25T22:53:54.018Z,86.60
2023-03-25T22:56:23.565Z,88.57
2023-03-25T22:58:53.754Z,88.72
2023-03-25T23:01:25.954Z,89.79
2023-03-25T23:03:53.992Z,90.47
2023-03-25T23:06:22.049Z,89.61
2023-03-25T23:08:49.531Z,89.84
2023-03-25T23:11:20.408Z,88.47
2023-03-25T23:13:50.507Z,90.25
2023-03-25T23:16:22.604Z,90.71
2023-03-25T23:18:49.818Z,91.38
2023-03-25T23:21:22.754Z,92.27
2023-03-25T23:23:52.571Z,90.71
2023-03-25T23:31:41.768Z,88.97
2023-03-25T23:34:11.791Z,91.05
2023-03-25T23:36:39.518Z,90.59
2023-03-25T23:39:08.995Z,90.51
2023-03-25T23:41:36.450Z,90.84
2023-03-25T23:44:04.198Z,90.95
2023-03-25T23:46:31.135Z,90.65
2023-03-25T23:49:02.756Z,89.54
2023-03-25T23:51:33.317Z,90.30
2023-03-25T23:54:00.195Z,89.70
2023-03-25T23:56:26.833Z,89.03
2023-03-25T23:58:53.893Z,88.57
